sensor_id;sensor_type;location;lat;lon;timestamp;P1;durP1;ratioP1;P2;durP2;ratioP2
13244;SDS011;6689;53.400;12.486;2022-12-07T10:02:23;10.90;;;7.25;;
13244;SDS011;6689;53.400;12.486;2022-12-07T10:04:54;13.95;;;7.55;;
13244;SDS011;6689;53.400;12.486;2022-12-07T10:07:24;9.73;;;6.88;;
13244;SDS011;6689;53.400;12.486;2022-12-07T10:09:51;8.30;;;6.03;;
13244;SDS011;6689;53.400;12.486;2022-12-07T10:12:18;10.82;;;6.43;;
13244;SDS011;6689;53.400;12.486;2022-12-07T10:14:57;11.80;;;6.60;;
13244;SDS011;6689;53.400;12.486;2022-12-07T10:17:37;8.90;;;5.85;;
13244;SDS011;6689;53.400;12.486;2022-12-07T10:20:17;10.60;;;5.72;;
13244;SDS011;6689;53.400;12.486;2022-12-07T10:22:56;8.23;;;5.80;;
13244;SDS011;6689;53.400;12.486;2022-12-07T10:25:30;12.93;;;6.07;;
13244;SDS011;6689;53.400;12.486;2022-12-07T10:28:11;9.35;;;5.50;;
13244;SDS011;6689;53.400;12.486;2022-12-07T10:30:49;10.25;;;6.13;;
13244;SDS011;6689;53.400;12.486;2022-12-07T10:33:29;13.35;;;6.38;;
13244;SDS011;6689;53.400;12.486;2022-12-07T10:35:58;8.27;;;5.18;;
13244;SDS011;6689;53.400;12.486;2022-12-07T10:38:27;6.93;;;5.85;;
13244;SDS011;6689;53.400;12.486;2022-12-07T10:41:04;10.57;;;6.07;;
13244;SDS011;6689;53.400;12.486;2022-12-07T10:43:34;9.50;;;5.57;;
13244;SDS011;6689;53.400;12.486;2022-12-07T10:46:10;8.40;;;5.63;;
13244;SDS011;6689;53.400;12.486;2022-12-07T10:49:02;8.07;;;5.90;;
13244;SDS011;6689;53.400;12.486;2022-12-07T10:51:40;7.53;;;5.63;;
13244;SDS011;6689;53.400;12.486;2022-12-07T10:54:12;8.60;;;5.50;;
13244;SDS011;6689;53.400;12.486;2022-12-07T10:56:54;7.75;;;5.78;;
13244;SDS011;6689;53.400;12.486;2022-12-07T11:02:29;10.93;;;7.13;;
13244;SDS011;6689;53.400;12.486;2022-12-07T11:05:12;9.88;;;6.00;;
13244;SDS011;6689;53.400;12.486;2022-12-07T11:07:47;8.38;;;6.63;;
13244;SDS011;6689;53.400;12.486;2022-12-07T11:10:26;8.30;;;6.18;;
13244;SDS011;6689;53.400;12.486;2022-12-07T11:13:10;10.93;;;6.82;;
13244;SDS011;6689;53.400;12.486;2022-12-07T11:15:54;9.23;;;6.72;;
13244;SDS011;6689;53.400;12.486;2022-12-07T11:18:32;9.52;;;6.80;;
13244;SDS011;6689;53.400;12.486;2022-12-07T11:21:09;8.63;;;6.05;;
13244;SDS011;6689;53.400;12.486;2022-12-07T11:23:46;7.75;;;5.70;;
13244;SDS011;6689;53.400;12.486;2022-12-07T11:26:24;11.88;;;6.93;;
13244;SDS011;6689;53.400;12.486;2022-12-07T11:29:15;13.35;;;6.43;;
13244;SDS011;6689;53.400;12.486;2022-12-07T11:31:58;10.35;;;6.50;;
13244;SDS011;6689;53.400;12.486;2022-12-07T11:34:36;14.27;;;7.47;;
13244;SDS011;6689;53.400;12.486;2022-12-07T11:37:11;13.93;;;6.95;;
13244;SDS011;6689;53.400;12.486;2022-12-07T11:39:41;9.90;;;6.75;;
13244;SDS011;6689;53.400;12.486;2022-12-07T11:42:16;12.80;;;7.80;;
13244;SDS011;6689;53.400;12.486;2022-12-07T11:44:50;10.95;;;5.95;;
13244;SDS011;6689;53.400;12.486;2022-12-07T11:47:25;12.27;;;6.53;;
13244;SDS011;6689;53.400;12.486;2022-12-07T11:50:05;8.68;;;5.68;;
13244;SDS011;6689;53.400;12.486;2022-12-07T11:52:48;10.27;;;7.72;;
13244;SDS011;6689;53.400;12.486;2022-12-07T11:55:21;7.80;;;5.22;;
13244;SDS011;6689;53.400;12.486;2022-12-07T11:57:54;8.52;;;5.93;;
13244;SDS011;6689;53.400;12.486;2022-12-07T12:00:27;6.22;;;5.28;;
13244;SDS011;6689;53.400;12.486;2022-12-07T12:02:55;9.65;;;5.10;;
13244;SDS011;6689;53.400;12.486;2022-12-07T12:05:29;7.38;;;4.38;;
13244;SDS011;6689;53.400;12.486;2022-12-07T12:07:59;9.40;;;4.53;;
13244;SDS011;6689;53.400;12.486;2022-12-07T12:10:41;5.18;;;3.60;;
13244;SDS011;6689;53.400;12.486;2022-12-07T12:13:29;6.53;;;3.25;;
13244;SDS011;6689;53.400;12.486;2022-12-07T12:16:19;6.88;;;4.40;;
13244;SDS011;6689;53.400;12.486;2022-12-07T12:19:21;9.45;;;2.60;;
13244;SDS011;6689;53.400;12.486;2022-12-07T12:21:59;5.88;;;2.83;;
13244;SDS011;6689;53.400;12.486;2022-12-07T12:24:32;4.03;;;2.20;;
13244;SDS011;6689;53.400;12.486;2022-12-07T12:27:02;3.78;;;1.90;;
13244;SDS011;6689;53.400;12.486;2022-12-07T12:29:33;3.67;;;1.50;;
13244;SDS011;6689;53.400;12.486;2022-12-07T12:32:06;4.22;;;2.20;;
13244;SDS011;6689;53.400;12.486;2022-12-07T12:34:40;3.40;;;1.85;;
13244;SDS011;6689;53.400;12.486;2022-12-07T12:49:31;2.97;;;1.42;;
13244;SDS011;6689;53.400;12.486;2022-12-07T12:52:01;3.83;;;1.30;;
13244;SDS011;6689;53.400;12.486;2022-12-07T12:55:14;2.88;;;1.25;;
13244;SDS011;6689;53.400;12.486;2022-12-07T12:57:47;3.42;;;1.20;;
13244;SDS011;6689;53.400;12.486;2022-12-07T13:00:34;3.78;;;1.10;;
13244;SDS011;6689;53.400;12.486;2022-12-07T13:03:02;3.85;;;1.38;;
13244;SDS011;6689;53.400;12.486;2022-12-07T13:05:30;1.77;;;1.00;;
13244;SDS011;6689;53.400;12.486;2022-12-07T13:08:00;4.93;;;1.27;;
13244;SDS011;6689;53.400;12.486;2022-12-07T13:10:34;4.30;;;1.27;;
13244;SDS011;6689;53.400;12.486;2022-12-07T13:25:07;9.65;;;1.55;;
13244;SDS011;6689;53.400;12.486;2022-12-07T13:27:39;5.07;;;1.25;;
13244;SDS011;6689;53.400;12.486;2022-12-07T13:30:11;5.13;;;0.95;;
13244;SDS011;6689;53.400;12.486;2022-12-07T13:32:41;2.55;;;1.08;;
13244;SDS011;6689;53.400;12.486;2022-12-07T13:35:28;8.20;;;2.17;;
13244;SDS011;6689;53.400;12.486;2022-12-07T13:37:56;4.53;;;1.10;;
13244;SDS011;6689;53.400;12.486;2022-12-07T13:40:24;3.97;;;0.95;;
13244;SDS011;6689;53.400;12.486;2022-12-07T13:43:03;7.18;;;1.10;;
13244;SDS011;6689;53.400;12.486;2022-12-07T13:45:39;1.65;;;0.90;;
13244;SDS011;6689;53.400;12.486;2022-12-07T13:48:20;3.42;;;0.85;;
13244;SDS011;6689;53.400;12.486;2022-12-07T13:50:55;6.22;;;1.13;;
13244;SDS011;6689;53.400;12.486;2022-12-07T13:53:23;4.45;;;1.83;;
13244;SDS011;6689;53.400;12.486;2022-12-07T13:55:53;3.78;;;0.98;;
13244;SDS011;6689;53.400;12.486;2022-12-07T13:58:22;3.15;;;0.93;;
13244;SDS011;6689;53.400;12.486;2022-12-07T14:00:53;2.97;;;0.90;;
13244;SDS011;6689;53.400;12.486;2022-12-07T14:03:32;3.15;;;1.40;;
13244;SDS011;6689;53.400;12.486;2022-12-07T14:09:05;3.10;;;0.63;;
13244;SDS011;6689;53.400;12.486;2022-12-07T14:11:34;2.10;;;0.90;;
13244;SDS011;6689;53.400;12.486;2022-12-07T14:14:02;3.90;;;1.48;;
13244;SDS011;6689;53.400;12.486;2022-12-07T14:16:32;2.92;;;0.98;;
13244;SDS011;6689;53.400;12.486;2022-12-07T14:19:01;5.28;;;1.33;;
13244;SDS011;6689;53.400;12.486;2022-12-07T14:21:31;4.95;;;0.95;;
13244;SDS011;6689;53.400;12.486;2022-12-07T14:24:09;3.00;;;0.73;;
13244;SDS011;6689;53.400;12.486;2022-12-07T14:26:47;4.20;;;0.60;;
13244;SDS011;6689;53.400;12.486;2022-12-07T14:29:20;10.68;;;1.20;;
13244;SDS011;6689;53.400;12.486;2022-12-07T14:32:04;4.13;;;1.05;;
13244;SDS011;6689;53.400;12.486;2022-12-07T14:34:57;4.10;;;1.00;;
13244;SDS011;6689;53.400;12.486;2022-12-07T14:37:27;2.65;;;0.90;;
13244;SDS011;6689;53.400;12.486;2022-12-07T14:39:55;6.30;;;1.20;;
13244;SDS011;6689;53.400;12.486;2022-12-07T14:42:25;4.88;;;1.00;;
13244;SDS011;6689;53.400;12.486;2022-12-07T14:44:56;5.22;;;1.55;;
13244;SDS011;6689;53.400;12.486;2022-12-07T14:47:24;4.85;;;1.10;;
13244;SDS011;6689;53.400;12.486;2022-12-07T14:49:53;4.25;;;1.10;;
13244;SDS011;6689;53.400;12.486;2022-12-07T14:52:22;6.30;;;2.15;;
13244;SDS011;6689;53.400;12.486;2022-12-07T14:54:55;4.93;;;1.08;;
13244;SDS011;6689;53.400;12.486;2022-12-07T14:57:22;4.57;;;1.02;;
13244;SDS011;6689;53.400;12.486;2022-12-07T14:59:49;4.38;;;1.90;;
13244;SDS011;6689;53.400;12.486;2022-12-07T15:02:18;1.45;;;0.80;;
13244;SDS011;6689;53.400;12.486;2022-12-07T15:04:45;5.78;;;0.90;;
13244;SDS011;6689;53.400;12.486;2022-12-07T15:07:14;6.32;;;0.98;;
13244;SDS011;6689;53.400;12.486;2022-12-07T15:09:45;2.63;;;0.60;;
13244;SDS011;6689;53.400;12.486;2022-12-07T15:12:12;6.40;;;1.40;;
13244;SDS011;6689;53.400;12.486;2022-12-07T15:14:39;3.75;;;1.00;;
13244;SDS011;6689;53.400;12.486;2022-12-07T15:17:07;6.68;;;0.95;;
13244;SDS011;6689;53.400;12.486;2022-12-07T15:19:38;1.48;;;0.60;;
13244;SDS011;6689;53.400;12.486;2022-12-07T15:22:05;3.33;;;1.13;;
13244;SDS011;6689;53.400;12.486;2022-12-07T15:24:36;3.22;;;1.00;;
13244;SDS011;6689;53.400;12.486;2022-12-07T15:27:03;3.03;;;0.90;;
13244;SDS011;6689;53.400;12.486;2022-12-07T15:29:33;8.63;;;1.38;;
13244;SDS011;6689;53.400;12.486;2022-12-07T15:32:00;1.55;;;0.70;;
13244;SDS011;6689;53.400;12.486;2022-12-07T15:34:28;2.30;;;1.00;;
13244;SDS011;6689;53.400;12.486;2022-12-07T15:36:58;3.20;;;0.80;;
13244;SDS011;6689;53.400;12.486;2022-12-07T15:39:26;3.03;;;1.02;;
13244;SDS011;6689;53.400;12.486;2022-12-07T15:41:55;2.67;;;0.82;;
13244;SDS011;6689;53.400;12.486;2022-12-07T15:44:25;3.13;;;1.35;;
13244;SDS011;6689;53.400;12.486;2022-12-07T15:47:09;2.08;;;1.02;;
13244;SDS011;6689;53.400;12.486;2022-12-07T15:49:39;3.85;;;1.02;;
13244;SDS011;6689;53.400;12.486;2022-12-07T15:52:08;6.13;;;1.13;;
13244;SDS011;6689;53.400;12.486;2022-12-07T15:54:35;5.82;;;1.10;;
13244;SDS011;6689;53.400;12.486;2022-12-07T15:57:02;4.72;;;1.00;;
13244;SDS011;6689;53.400;12.486;2022-12-07T15:59:30;7.10;;;1.40;;
13244;SDS011;6689;53.400;12.486;2022-12-07T16:01:57;5.28;;;0.90;;
13244;SDS011;6689;53.400;12.486;2022-12-07T16:04:26;4.63;;;1.33;;
13244;SDS011;6689;53.400;12.486;2022-12-07T16:06:54;6.68;;;0.70;;
13244;SDS011;6689;53.400;12.486;2022-12-07T16:09:23;3.85;;;1.02;;
13244;SDS011;6689;53.400;12.486;2022-12-07T16:11:50;3.58;;;1.00;;
13244;SDS011;6689;53.400;12.486;2022-12-07T16:14:17;3.78;;;0.80;;
13244;SDS011;6689;53.400;12.486;2022-12-07T16:16:46;4.55;;;1.45;;
13244;SDS011;6689;53.400;12.486;2022-12-07T16:19:16;4.88;;;1.40;;
13244;SDS011;6689;53.400;12.486;2022-12-07T16:21:44;4.88;;;2.03;;
13244;SDS011;6689;53.400;12.486;2022-12-07T16:24:11;2.78;;;1.23;;
13244;SDS011;6689;53.400;12.486;2022-12-07T16:26:41;4.60;;;1.27;;
13244;SDS011;6689;53.400;12.486;2022-12-07T16:29:10;3.83;;;0.90;;
13244;SDS011;6689;53.400;12.486;2022-12-07T16:31:38;2.78;;;0.95;;
13244;SDS011;6689;53.400;12.486;2022-12-07T16:34:06;1.75;;;0.75;;
13244;SDS011;6689;53.400;12.486;2022-12-07T16:36:35;2.83;;;0.90;;
13244;SDS011;6689;53.400;12.486;2022-12-07T16:39:05;4.55;;;1.17;;
13244;SDS011;6689;53.400;12.486;2022-12-07T16:41:32;2.78;;;0.63;;
13244;SDS011;6689;53.400;12.486;2022-12-07T16:44:02;3.30;;;1.10;;
13244;SDS011;6689;53.400;12.486;2022-12-07T16:46:31;5.45;;;1.92;;
13244;SDS011;6689;53.400;12.486;2022-12-07T16:48:58;3.10;;;1.20;;
13244;SDS011;6689;53.400;12.486;2022-12-07T16:51:26;2.90;;;1.25;;
13244;SDS011;6689;53.400;12.486;2022-12-07T16:53:53;3.38;;;0.80;;
13244;SDS011;6689;53.400;12.486;2022-12-07T16:56:21;3.25;;;1.35;;
13244;SDS011;6689;53.400;12.486;2022-12-07T16:58:48;2.70;;;1.00;;
13244;SDS011;6689;53.400;12.486;2022-12-07T17:01:17;3.90;;;1.30;;
13244;SDS011;6689;53.400;12.486;2022-12-07T17:03:46;2.83;;;1.65;;
13244;SDS011;6689;53.400;12.486;2022-12-07T17:06:14;6.57;;;1.30;;
13244;SDS011;6689;53.400;12.486;2022-12-07T17:08:43;3.83;;;1.85;;
13244;SDS011;6689;53.400;12.486;2022-12-07T17:11:11;1.67;;;1.20;;
13244;SDS011;6689;53.400;12.486;2022-12-07T17:13:40;2.38;;;1.02;;
13244;SDS011;6689;53.400;12.486;2022-12-07T17:16:26;3.72;;;1.20;;
13244;SDS011;6689;53.400;12.486;2022-12-07T17:18:54;6.32;;;1.10;;
13244;SDS011;6689;53.400;12.486;2022-12-07T17:21:22;4.13;;;1.90;;
13244;SDS011;6689;53.400;12.486;2022-12-07T17:23:50;4.78;;;1.70;;
13244;SDS011;6689;53.400;12.486;2022-12-07T17:26:18;7.13;;;2.75;;
13244;SDS011;6689;53.400;12.486;2022-12-07T17:28:48;3.40;;;1.13;;
13244;SDS011;6689;53.400;12.486;2022-12-07T17:31:16;5.90;;;1.30;;
13244;SDS011;6689;53.400;12.486;2022-12-07T17:33:48;4.25;;;0.88;;
13244;SDS011;6689;53.400;12.486;2022-12-07T17:36:16;3.03;;;1.10;;
13244;SDS011;6689;53.400;12.486;2022-12-07T17:38:44;1.85;;;1.00;;
13244;SDS011;6689;53.400;12.486;2022-12-07T17:41:13;1.75;;;1.00;;
13244;SDS011;6689;53.400;12.486;2022-12-07T17:44:03;4.55;;;1.10;;
13244;SDS011;6689;53.400;12.486;2022-12-07T17:46:31;3.80;;;1.17;;
13244;SDS011;6689;53.400;12.486;2022-12-07T17:49:00;1.67;;;1.00;;
13244;SDS011;6689;53.400;12.486;2022-12-07T17:51:29;1.35;;;0.80;;
13244;SDS011;6689;53.400;12.486;2022-12-07T17:54:13;5.00;;;1.40;;
13244;SDS011;6689;53.400;12.486;2022-12-07T17:56:40;2.22;;;1.20;;
13244;SDS011;6689;53.400;12.486;2022-12-07T17:59:08;3.70;;;1.05;;
13244;SDS011;6689;53.400;12.486;2022-12-07T18:01:39;4.20;;;0.95;;
13244;SDS011;6689;53.400;12.486;2022-12-07T18:04:08;7.53;;;1.58;;
13244;SDS011;6689;53.400;12.486;2022-12-07T18:06:35;1.73;;;0.95;;
13244;SDS011;6689;53.400;12.486;2022-12-07T18:09:03;2.85;;;0.90;;
13244;SDS011;6689;53.400;12.486;2022-12-07T18:11:30;3.08;;;0.93;;
13244;SDS011;6689;53.400;12.486;2022-12-07T18:13:58;2.35;;;1.08;;
13244;SDS011;6689;53.400;12.486;2022-12-07T18:16:27;4.18;;;1.10;;
13244;SDS011;6689;53.400;12.486;2022-12-07T18:18:57;2.05;;;1.00;;
13244;SDS011;6689;53.400;12.486;2022-12-07T18:21:27;2.47;;;0.90;;
13244;SDS011;6689;53.400;12.486;2022-12-07T18:23:56;4.22;;;1.05;;
13244;SDS011;6689;53.400;12.486;2022-12-07T18:26:27;1.35;;;0.88;;
13244;SDS011;6689;53.400;12.486;2022-12-07T18:28:57;4.28;;;1.70;;
13244;SDS011;6689;53.400;12.486;2022-12-07T18:31:25;4.05;;;1.00;;
13244;SDS011;6689;53.400;12.486;2022-12-07T18:33:52;1.55;;;1.00;;
13244;SDS011;6689;53.400;12.486;2022-12-07T18:36:20;2.25;;;1.10;;
13244;SDS011;6689;53.400;12.486;2022-12-07T18:38:49;6.30;;;1.60;;
13244;SDS011;6689;53.400;12.486;2022-12-07T18:41:17;1.70;;;0.95;;
13244;SDS011;6689;53.400;12.486;2022-12-07T18:43:45;3.72;;;1.02;;
13244;SDS011;6689;53.400;12.486;2022-12-07T18:46:13;2.92;;;1.00;;
13244;SDS011;6689;53.400;12.486;2022-12-07T18:48:42;3.08;;;1.02;;
13244;SDS011;6689;53.400;12.486;2022-12-07T18:51:10;1.92;;;1.02;;
13244;SDS011;6689;53.400;12.486;2022-12-07T18:53:39;6.60;;;1.13;;
13244;SDS011;6689;53.400;12.486;2022-12-07T18:56:09;2.70;;;1.10;;
13244;SDS011;6689;53.400;12.486;2022-12-07T18:58:39;4.88;;;1.20;;
13244;SDS011;6689;53.400;12.486;2022-12-07T19:01:27;2.50;;;1.10;;
13244;SDS011;6689;53.400;12.486;2022-12-07T19:03:59;1.33;;;0.80;;
13244;SDS011;6689;53.400;12.486;2022-12-07T19:06:26;3.53;;;1.20;;
13244;SDS011;6689;53.400;12.486;2022-12-07T19:08:54;3.85;;;1.23;;
13244;SDS011;6689;53.400;12.486;2022-12-07T19:11:24;1.88;;;1.02;;
13244;SDS011;6689;53.400;12.486;2022-12-07T19:14:06;3.45;;;1.15;;
13244;SDS011;6689;53.400;12.486;2022-12-07T19:16:33;5.70;;;1.42;;
13244;SDS011;6689;53.400;12.486;2022-12-07T19:19:03;2.38;;;1.00;;
13244;SDS011;6689;53.400;12.486;2022-12-07T19:21:31;3.10;;;1.42;;
13244;SDS011;6689;53.400;12.486;2022-12-07T19:23:58;2.40;;;1.20;;
13244;SDS011;6689;53.400;12.486;2022-12-07T19:26:29;4.82;;;1.20;;
13244;SDS011;6689;53.400;12.486;2022-12-07T19:28:56;4.85;;;1.00;;
13244;SDS011;6689;53.400;12.486;2022-12-07T19:31:24;4.35;;;1.23;;
13244;SDS011;6689;53.400;12.486;2022-12-07T19:33:51;1.30;;;1.13;;
13244;SDS011;6689;53.400;12.486;2022-12-07T19:36:18;6.95;;;1.27;;
13244;SDS011;6689;53.400;12.486;2022-12-07T19:51:44;4.07;;;1.70;;
13244;SDS011;6689;53.400;12.486;2022-12-07T19:54:13;4.35;;;1.70;;
13244;SDS011;6689;53.400;12.486;2022-12-07T20:02:43;2.60;;;1.30;;
13244;SDS011;6689;53.400;12.486;2022-12-07T20:05:10;2.53;;;1.08;;
13244;SDS011;6689;53.400;12.486;2022-12-07T20:07:39;8.18;;;1.25;;
13244;SDS011;6689;53.400;12.486;2022-12-07T20:10:06;1.83;;;0.90;;
13244;SDS011;6689;53.400;12.486;2022-12-07T20:12:35;3.72;;;1.17;;
13244;SDS011;6689;53.400;12.486;2022-12-07T20:15:19;2.92;;;1.50;;
13244;SDS011;6689;53.400;12.486;2022-12-07T20:17:46;2.58;;;1.10;;
13244;SDS011;6689;53.400;12.486;2022-12-07T20:20:14;2.33;;;1.10;;
13244;SDS011;6689;53.400;12.486;2022-12-07T20:22:42;3.25;;;1.33;;
13244;SDS011;6689;53.400;12.486;2022-12-07T20:25:10;3.38;;;1.17;;
13244;SDS011;6689;53.400;12.486;2022-12-07T20:27:38;1.75;;;1.00;;
13244;SDS011;6689;53.400;12.486;2022-12-07T20:30:06;5.07;;;1.30;;
13244;SDS011;6689;53.400;12.486;2022-12-07T20:32:37;1.83;;;1.20;;
13244;SDS011;6689;53.400;12.486;2022-12-07T20:35:04;3.05;;;1.42;;
13244;SDS011;6689;53.400;12.486;2022-12-07T20:37:31;2.10;;;1.08;;
13244;SDS011;6689;53.400;12.486;2022-12-07T20:40:00;1.98;;;1.00;;
13244;SDS011;6689;53.400;12.486;2022-12-07T20:42:28;4.18;;;1.40;;
13244;SDS011;6689;53.400;12.486;2022-12-07T20:45:04;5.22;;;0.98;;
13244;SDS011;6689;53.400;12.486;2022-12-07T20:47:33;3.75;;;1.20;;
13244;SDS011;6689;53.400;12.486;2022-12-07T20:50:02;2.40;;;1.10;;
13244;SDS011;6689;53.400;12.486;2022-12-07T20:52:30;3.80;;;1.05;;
13244;SDS011;6689;53.400;12.486;2022-12-07T20:54:57;1.52;;;1.17;;
13244;SDS011;6689;53.400;12.486;2022-12-07T20:57:26;2.72;;;0.95;;
13244;SDS011;6689;53.400;12.486;2022-12-07T20:59:55;4.97;;;1.15;;
13244;SDS011;6689;53.400;12.486;2022-12-07T21:02:22;3.72;;;1.35;;
13244;SDS011;6689;53.400;12.486;2022-12-07T21:04:50;2.13;;;1.25;;
13244;SDS011;6689;53.400;12.486;2022-12-07T21:07:17;2.35;;;0.90;;
13244;SDS011;6689;53.400;12.486;2022-12-07T21:09:44;1.77;;;1.25;;
13244;SDS011;6689;53.400;12.486;2022-12-07T21:12:11;4.97;;;1.38;;
13244;SDS011;6689;53.400;12.486;2022-12-07T21:14:42;1.92;;;0.95;;
13244;SDS011;6689;53.400;12.486;2022-12-07T21:17:10;6.20;;;1.27;;
13244;SDS011;6689;53.400;12.486;2022-12-07T21:19:37;3.35;;;1.33;;
13244;SDS011;6689;53.400;12.486;2022-12-07T21:22:04;2.83;;;1.60;;
13244;SDS011;6689;53.400;12.486;2022-12-07T21:24:31;6.85;;;1.40;;
13244;SDS011;6689;53.400;12.486;2022-12-07T21:26:59;2.53;;;1.40;;
13244;SDS011;6689;53.400;12.486;2022-12-07T21:29:26;5.18;;;1.42;;
13244;SDS011;6689;53.400;12.486;2022-12-07T21:31:55;2.78;;;1.15;;
13244;SDS011;6689;53.400;12.486;2022-12-07T21:34:22;2.60;;;1.08;;
13244;SDS011;6689;53.400;12.486;2022-12-07T21:36:49;3.55;;;2.22;;
13244;SDS011;6689;53.400;12.486;2022-12-07T21:39:17;2.55;;;1.10;;
13244;SDS011;6689;53.400;12.486;2022-12-07T21:41:44;4.38;;;1.30;;
13244;SDS011;6689;53.400;12.486;2022-12-07T21:44:12;3.60;;;1.17;;
13244;SDS011;6689;53.400;12.486;2022-12-07T21:46:39;2.13;;;1.15;;
13244;SDS011;6689;53.400;12.486;2022-12-07T21:49:09;7.22;;;1.42;;
13244;SDS011;6689;53.400;12.486;2022-12-07T21:51:38;2.47;;;1.10;;
13244;SDS011;6689;53.400;12.486;2022-12-07T21:54:06;3.03;;;1.40;;
13244;SDS011;6689;53.400;12.486;2022-12-07T21:56:34;4.10;;;1.27;;
13244;SDS011;6689;53.400;12.486;2022-12-07T21:59:04;2.88;;;1.05;;
13244;SDS011;6689;53.400;12.486;2022-12-07T22:01:34;4.53;;;1.60;;
13244;SDS011;6689;53.400;12.486;2022-12-07T22:04:04;3.47;;;1.10;;
13244;SDS011;6689;53.400;12.486;2022-12-07T22:06:34;2.97;;;1.40;;
13244;SDS011;6689;53.400;12.486;2022-12-07T22:09:02;5.38;;;1.50;;
13244;SDS011;6689;53.400;12.486;2022-12-07T22:11:30;5.07;;;1.40;;
13244;SDS011;6689;53.400;12.486;2022-12-07T22:13:58;4.18;;;1.20;;
13244;SDS011;6689;53.400;12.486;2022-12-07T22:16:43;3.38;;;1.20;;
13244;SDS011;6689;53.400;12.486;2022-12-07T22:19:10;5.13;;;1.27;;
13244;SDS011;6689;53.400;12.486;2022-12-07T22:21:39;2.92;;;1.80;;
13244;SDS011;6689;53.400;12.486;2022-12-07T22:24:06;1.88;;;1.30;;
13244;SDS011;6689;53.400;12.486;2022-12-07T22:26:37;4.00;;;1.33;;
13244;SDS011;6689;53.400;12.486;2022-12-07T22:29:05;3.33;;;1.20;;
13244;SDS011;6689;53.400;12.486;2022-12-07T22:31:33;1.33;;;1.02;;
13244;SDS011;6689;53.400;12.486;2022-12-07T22:34:02;2.33;;;1.00;;
13244;SDS011;6689;53.400;12.486;2022-12-07T22:36:29;3.00;;;1.38;;
13244;SDS011;6689;53.400;12.486;2022-12-07T22:38:59;5.05;;;2.45;;
13244;SDS011;6689;53.400;12.486;2022-12-07T22:41:27;2.85;;;1.23;;
13244;SDS011;6689;53.400;12.486;2022-12-07T22:43:56;4.90;;;1.35;;
13244;SDS011;6689;53.400;12.486;2022-12-07T22:46:24;3.90;;;1.90;;
13244;SDS011;6689;53.400;12.486;2022-12-07T22:48:52;2.88;;;1.13;;
13244;SDS011;6689;53.400;12.486;2022-12-07T22:51:20;3.08;;;1.83;;
13244;SDS011;6689;53.400;12.486;2022-12-07T22:53:49;3.97;;;1.27;;
13244;SDS011;6689;53.400;12.486;2022-12-07T22:56:19;2.85;;;1.25;;
13244;SDS011;6689;53.400;12.486;2022-12-07T22:58:47;4.10;;;1.13;;
13244;SDS011;6689;53.400;12.486;2022-12-07T23:01:15;4.22;;;1.73;;
13244;SDS011;6689;53.400;12.486;2022-12-07T23:03:43;3.70;;;1.40;;
13244;SDS011;6689;53.400;12.486;2022-12-07T23:06:12;4.70;;;1.42;;
13244;SDS011;6689;53.400;12.486;2022-12-07T23:08:41;4.10;;;1.50;;
13244;SDS011;6689;53.400;12.486;2022-12-07T23:11:09;1.90;;;1.10;;
13244;SDS011;6689;53.400;12.486;2022-12-07T23:13:58;3.90;;;2.30;;
13244;SDS011;6689;53.400;12.486;2022-12-07T23:16:24;3.33;;;1.25;;
13244;SDS011;6689;53.400;12.486;2022-12-07T23:18:52;8.15;;;1.55;;
13244;SDS011;6689;53.400;12.486;2022-12-07T23:21:22;3.85;;;1.50;;
13244;SDS011;6689;53.400;12.486;2022-12-07T23:23:49;6.07;;;1.60;;
13244;SDS011;6689;53.400;12.486;2022-12-07T23:26:16;3.70;;;1.42;;
13244;SDS011;6689;53.400;12.486;2022-12-07T23:28:44;4.38;;;1.42;;
13244;SDS011;6689;53.400;12.486;2022-12-07T23:31:13;2.88;;;1.75;;
13244;SDS011;6689;53.400;12.486;2022-12-07T23:33:42;5.18;;;2.35;;
13244;SDS011;6689;53.400;12.486;2022-12-07T23:36:10;3.90;;;1.65;;
13244;SDS011;6689;53.400;12.486;2022-12-07T23:38:40;3.13;;;1.55;;
13244;SDS011;6689;53.400;12.486;2022-12-07T23:41:09;3.33;;;1.73;;
13244;SDS011;6689;53.400;12.486;2022-12-07T23:43:38;5.10;;;1.90;;
13244;SDS011;6689;53.400;12.486;2022-12-07T23:46:14;4.25;;;1.90;;
13244;SDS011;6689;53.400;12.486;2022-12-07T23:48:42;8.05;;;1.58;;
13244;SDS011;6689;53.400;12.486;2022-12-07T23:51:10;2.85;;;1.27;;
13244;SDS011;6689;53.400;12.486;2022-12-07T23:53:39;4.72;;;1.73;;
13244;SDS011;6689;53.400;12.486;2022-12-07T23:56:09;3.95;;;1.58;;
13244;SDS011;6689;53.400;12.486;2022-12-07T23:58:38;2.90;;;2.17;;
